Time;durP1;ratioP1;P1;durP2;ratioP2;P2;SDS_P1;SDS_P2;PMS_P1;PMS_P2;Temp;Humidity;BMP_temperature;BMP_pressure;BME280_temperature;BME280_humidity;BME280_pressure;Samples;Min_cycle;Max_cycle;Signal;HPM_P1;HPM_P2
2023/09/04 00:02:00;;;;;;;0.88;0.50;;;19.00;1.00;;;;;;5116342;28;20420;-59
2023/09/04 00:04:28;;;;;;;1.55;0.50;;;19.00;1.00;;;;;;5116865;28;20435;-60
2023/09/04 00:06:55;;;;;;;2.00;0.60;;;19.00;1.00;;;;;;5117270;28;20408;-60
2023/09/04 00:09:23;;;;;;;0.80;0.50;;;19.00;1.00;;;;;;5117417;28;20838;-60
2023/09/04 00:11:51;;;;;;;0.70;0.60;;;18.90;1.00;;;;;;5117483;28;20420;-59
2023/09/04 00:14:18;;;;;;;1.05;0.75;;;18.90;1.00;;;;;;5117518;28;20416;-59
2023/09/04 00:16:47;;;;;;;1.00;0.60;;;19.00;1.00;;;;;;5117227;28;20424;-59
2023/09/04 00:19:14;;;;;;;1.00;0.70;;;18.90;1.00;;;;;;5117151;28;20419;-59
2023/09/04 00:21:41;;;;;;;0.70;0.50;;;18.90;1.00;;;;;;5117050;28;20416;-59
2023/09/04 00:24:08;;;;;;;1.00;0.70;;;18.90;1.00;;;;;;5116835;28;20423;-59
2023/09/04 00:26:36;;;;;;;1.00;0.70;;;18.90;1.00;;;;;;5116723;28;20412;-59
2023/09/04 00:29:03;;;;;;;1.30;0.60;;;18.80;1.00;;;;;;5099952;28;20424;-59
2023/09/04 00:31:30;;;;;;;1.10;0.70;;;18.80;1.00;;;;;;5116491;28;20424;-59
2023/09/04 00:33:59;;;;;;;1.10;0.70;;;18.80;1.00;;;;;;5116445;28;20409;-60
2023/09/04 00:36:26;;;;;;;1.70;0.70;;;18.90;1.00;;;;;;5116006;28;20483;-59
2023/09/04 00:38:53;;;;;;;0.90;0.60;;;18.80;1.00;;;;;;5116268;28;20420;-60
2023/09/04 00:41:20;;;;;;;1.10;0.63;;;18.80;1.00;;;;;;5116087;28;20416;-60
2023/09/04 00:43:47;;;;;;;1.80;0.70;;;18.90;1.00;;;;;;5103453;28;20435;-60
2023/09/04 00:46:15;;;;;;;1.25;0.70;;;18.90;1.00;;;;;;5113509;28;20708;-60
2023/09/04 00:48:43;;;;;;;1.60;0.70;;;18.90;1.00;;;;;;5116631;28;20412;-60
2023/09/04 00:51:12;;;;;;;1.60;0.70;;;18.90;1.00;;;;;;5115643;28;20424;-59
2023/09/04 00:53:40;;;;;;;0.90;0.70;;;18.80;1.00;;;;;;5115276;28;20424;-59
2023/09/04 00:56:08;;;;;;;1.10;0.77;;;18.80;1.00;;;;;;5115642;28;20420;-60
2023/09/04 00:58:35;;;;;;;1.10;0.60;;;18.70;1.00;;;;;;5115717;28;20820;-60
2023/09/04 01:01:03;;;;;;;0.90;0.63;;;18.70;1.00;;;;;;5115530;28;20488;-60
2023/09/04 01:03:31;;;;;;;1.00;0.65;;;18.70;1.00;;;;;;5116161;28;20463;-60
2023/09/04 01:05:59;;;;;;;1.00;0.70;;;18.80;1.00;;;;;;5116150;28;20428;-60
2023/09/04 01:08:28;;;;;;;1.40;0.70;;;18.80;1.00;;;;;;5116738;28;20435;-60
2023/09/04 01:11:03;;;;;;;1.75;0.70;;;18.80;1.00;;;;;;5116399;28;20864;-59
2023/09/04 01:13:37;;;;;;;1.00;0.70;;;18.80;1.00;;;;;;5116199;28;20423;-60
2023/09/04 01:16:05;;;;;;;0.90;0.70;;;18.90;1.00;;;;;;5115840;28;20886;-60
2023/09/04 01:18:34;;;;;;;1.00;0.60;;;18.80;1.00;;;;;;5116387;28;20412;-59
2023/09/04 01:21:03;;;;;;;1.30;0.60;;;18.80;1.00;;;;;;5116257;28;20432;-60
2023/09/04 01:23:30;;;;;;;0.90;0.60;;;18.80;1.00;;;;;;5116398;28;20711;-60
2023/09/04 01:26:07;;;;;;;0.90;0.60;;;18.70;1.00;;;;;;5116052;28;20432;-60
2023/09/04 01:28:41;;;;;;;1.20;0.60;;;18.60;1.00;;;;;;5106616;28;20424;-60
2023/09/04 01:31:15;;;;;;;0.88;0.63;;;18.60;1.00;;;;;;5110594;28;20419;-60
2023/09/04 01:33:48;;;;;;;1.13;0.60;;;18.50;1.00;;;;;;5115117;28;20420;-60
2023/09/04 01:36:17;;;;;;;1.10;0.63;;;18.50;1.00;;;;;;5115349;28;20827;-60
2023/09/04 01:38:46;;;;;;;0.98;0.60;;;18.40;1.00;;;;;;5114901;28;20420;-59
2023/09/04 01:41:13;;;;;;;2.10;0.60;;;18.40;1.00;;;;;;5114893;28;20481;-60
2023/09/04 01:43:41;;;;;;;1.30;0.60;;;18.40;1.00;;;;;;5103519;28;20883;-59
2023/09/04 01:46:08;;;;;;;0.80;0.50;;;18.40;1.00;;;;;;5109938;28;20428;-59
2023/09/04 01:48:36;;;;;;;0.98;0.50;;;18.40;1.00;;;;;;5115781;28;20412;-59
2023/09/04 01:51:03;;;;;;;1.50;0.70;;;18.40;1.00;;;;;;5116049;28;20693;-59
2023/09/04 01:53:32;;;;;;;1.90;0.63;;;18.50;1.00;;;;;;5115742;28;20431;-59
2023/09/04 01:55:59;;;;;;;0.80;0.60;;;18.40;1.00;;;;;;5115771;28;20416;-58
2023/09/04 01:58:27;;;;;;;0.70;0.60;;;18.40;1.00;;;;;;5115691;28;20766;-59
2023/09/04 02:00:54;;;;;;;1.00;0.70;;;18.40;1.00;;;;;;5115716;28;20412;-59
2023/09/04 02:03:21;;;;;;;1.00;0.60;;;18.30;1.00;;;;;;5115807;28;20446;-59
2023/09/04 02:05:48;;;;;;;1.00;0.70;;;18.30;1.00;;;;;;5115459;28;20435;-59
2023/09/04 02:08:15;;;;;;;1.20;0.67;;;18.20;1.00;;;;;;5115333;28;20424;-58
2023/09/04 02:10:44;;;;;;;1.00;0.60;;;18.30;1.00;;;;;;5115391;28;20477;-59
2023/09/04 02:13:11;;;;;;;2.30;0.60;;;18.30;1.00;;;;;;5115475;28;20827;-58
2023/09/04 02:15:38;;;;;;;0.90;0.60;;;18.20;1.00;;;;;;5115803;28;20800;-59
2023/09/04 02:18:05;;;;;;;1.10;0.70;;;18.20;1.00;;;;;;5115631;28;20777;-58
2023/09/04 02:20:33;;;;;;;1.27;0.60;;;18.20;1.00;;;;;;5114780;28;20426;-58
2023/09/04 02:23:00;;;;;;;0.90;0.60;;;18.20;1.00;;;;;;5114547;28;20423;-59
2023/09/04 02:25:27;;;;;;;0.90;0.60;;;18.10;1.00;;;;;;5114161;28;20428;-58
2023/09/04 02:27:56;;;;;;;0.98;0.60;;;18.00;1.00;;;;;;5114986;28;20420;-58
2023/09/04 02:30:23;;;;;;;0.77;0.50;;;18.00;1.00;;;;;;5115373;28;20427;-59
2023/09/04 02:32:50;;;;;;;0.97;0.60;;;18.00;1.00;;;;;;5115534;28;20919;-59
2023/09/04 02:35:17;;;;;;;1.00;0.70;;;17.90;1.00;;;;;;5115094;28;20416;-59
2023/09/04 02:37:45;;;;;;;1.60;0.50;;;18.00;1.00;;;;;;5115192;28;20592;-59
2023/09/04 02:40:12;;;;;;;1.00;0.70;;;17.90;1.00;;;;;;5115025;28;20413;-59
2023/09/04 02:42:40;;;;;;;2.20;0.60;;;18.00;1.00;;;;;;5115144;28;20412;-59
2023/09/04 02:45:10;;;;;;;0.90;0.60;;;18.00;1.00;;;;;;5115284;28;20531;-59
2023/09/04 02:47:37;;;;;;;1.40;0.60;;;18.00;1.00;;;;;;5115358;28;20420;-58
2023/09/04 02:50:06;;;;;;;1.00;0.63;;;18.00;1.00;;;;;;5115184;28;20827;-59
2023/09/04 02:52:33;;;;;;;1.00;0.65;;;18.00;1.00;;;;;;5114966;28;20485;-59
2023/09/04 02:55:00;;;;;;;1.08;0.60;;;18.00;1.00;;;;;;5115320;28;20408;-59
2023/09/04 02:57:29;;;;;;;0.90;0.60;;;18.10;1.00;;;;;;5118885;28;20412;-58
2023/09/04 02:59:57;;;;;;;0.90;0.60;;;18.10;1.00;;;;;;5118448;28;20824;-58
2023/09/04 03:02:25;;;;;;;1.10;0.70;;;18.20;1.00;;;;;;5118891;28;20419;-59
2023/09/04 03:04:56;;;;;;;2.40;0.60;;;18.20;1.00;;;;;;5118682;28;20432;-60
2023/09/04 03:07:26;;;;;;;1.10;0.70;;;18.10;1.00;;;;;;5118608;28;20811;-58
2023/09/04 03:09:56;;;;;;;1.20;0.60;;;18.20;1.00;;;;;;5118239;28;20776;-59
2023/09/04 03:12:24;;;;;;;0.90;0.60;;;18.20;1.00;;;;;;5118411;28;20435;-60
2023/09/04 03:14:56;;;;;;;1.20;0.60;;;18.20;1.00;;;;;;5118994;28;20749;-59
2023/09/04 03:17:25;;;;;;;1.02;0.70;;;18.10;1.00;;;;;;5118671;28;20820;-58
2023/09/04 03:19:53;;;;;;;0.80;0.60;;;18.10;1.00;;;;;;5117798;28;20420;-59
2023/09/04 03:22:20;;;;;;;0.90;0.60;;;18.10;1.00;;;;;;5115916;28;20841;-59
2023/09/04 03:24:47;;;;;;;1.00;0.60;;;18.20;1.00;;;;;;5116482;28;20450;-61
2023/09/04 03:27:15;;;;;;;0.80;0.50;;;18.20;1.00;;;;;;5116855;28;20723;-59
2023/09/04 03:29:42;;;;;;;1.00;0.60;;;18.20;1.00;;;;;;5116527;28;20836;-59
2023/09/04 03:32:09;;;;;;;0.90;0.60;;;18.30;1.00;;;;;;5117071;28;20424;-58
2023/09/04 03:34:38;;;;;;;1.00;0.60;;;18.40;1.00;;;;;;5117767;28;20735;-60
2023/09/04 03:37:05;;;;;;;0.80;0.50;;;18.40;1.00;;;;;;5118119;28;20822;-59
2023/09/04 03:39:37;;;;;;;1.00;0.60;;;18.30;1.00;;;;;;5120535;27;20869;-60
2023/09/04 03:42:04;;;;;;;1.60;0.70;;;18.20;1.00;;;;;;5130305;27;20817;-58
2023/09/04 03:44:31;;;;;;;1.40;0.60;;;18.20;1.00;;;;;;5138204;27;20523;-60
2023/09/04 03:46:58;;;;;;;1.00;0.60;;;18.10;1.00;;;;;;5127626;27;20431;-59
2023/09/04 03:49:25;;;;;;;0.77;0.60;;;18.00;1.00;;;;;;5117458;28;20454;-59
2023/09/04 03:51:54;;;;;;;0.85;0.60;;;17.90;1.00;;;;;;5123618;27;20414;-60
2023/09/04 03:54:22;;;;;;;3.60;0.60;;;17.80;1.00;;;;;;5138069;27;20433;-60
2023/09/04 03:56:49;;;;;;;1.30;0.70;;;17.70;1.00;;;;;;5126435;27;20428;-60
2023/09/04 03:59:16;;;;;;;1.20;0.70;;;17.60;1.00;;;;;;5116128;28;20423;-60
2023/09/04 04:01:44;;;;;;;1.00;0.60;;;17.50;1.00;;;;;;5119906;27;20842;-60
2023/09/04 04:04:11;;;;;;;1.90;0.68;;;17.50;1.00;;;;;;5116776;28;20488;-60
2023/09/04 04:06:39;;;;;;;1.10;0.60;;;17.50;1.00;;;;;;5119931;27;20428;-58
2023/09/04 04:09:08;;;;;;;0.90;0.60;;;17.50;1.00;;;;;;5116249;27;20497;-59
2023/09/04 04:11:35;;;;;;;1.15;0.70;;;17.50;1.00;;;;;;5129551;27;20437;-59
2023/09/04 04:14:03;;;;;;;1.00;0.70;;;17.50;1.00;;;;;;5136888;27;20760;-59
2023/09/04 04:16:34;;;;;;;1.00;0.60;;;17.50;1.00;;;;;;5129738;27;20430;-59
2023/09/04 04:19:01;;;;;;;1.90;0.70;;;17.50;1.00;;;;;;5135969;27;20834;-58
2023/09/04 04:21:28;;;;;;;1.50;0.65;;;17.50;1.00;;;;;;5099704;28;20421;-59
2023/09/04 04:23:55;;;;;;;1.00;0.70;;;17.50;1.00;;;;;;5113798;28;20431;-59
2023/09/04 04:26:24;;;;;;;1.23;0.70;;;17.50;1.00;;;;;;5113950;28;20436;-59
2023/09/04 04:28:51;;;;;;;1.10;0.60;;;17.50;1.00;;;;;;5115035;28;20859;-59
2023/09/04 04:31:18;;;;;;;1.20;0.65;;;17.50;1.00;;;;;;5114797;28;20836;-59
2023/09/04 04:33:45;;;;;;;0.90;0.70;;;17.50;1.00;;;;;;5115730;27;20850;-59
2023/09/04 04:36:13;;;;;;;1.10;0.70;;;17.50;1.00;;;;;;5115803;27;20424;-59
2023/09/04 04:38:40;;;;;;;1.40;0.70;;;17.40;1.00;;;;;;5116101;28;20431;-59
2023/09/04 04:41:07;;;;;;;1.48;0.70;;;17.30;1.00;;;;;;5135654;27;20483;-58
2023/09/04 04:43:36;;;;;;;1.60;0.80;;;17.20;1.00;;;;;;5131018;27;20443;-58
2023/09/04 04:46:03;;;;;;;1.25;0.70;;;17.20;1.00;;;;;;5122898;27;20467;-58
2023/09/04 04:48:46;;;;;;;1.00;0.70;;;17.20;1.00;;;;;;5114989;28;20481;-58
2023/09/04 04:51:31;;;;;;;1.10;0.80;;;17.20;1.00;;;;;;5055168;28;20436;-58
2023/09/04 04:53:58;;;;;;;0.90;0.60;;;17.20;1.00;;;;;;5108578;28;20459;-58
2023/09/04 04:56:28;;;;;;;1.50;0.70;;;17.20;3.30;;;;;;5114546;27;20424;-58
2023/09/04 04:58:57;;;;;;;1.00;0.70;;;17.10;1.00;;;;;;5121497;27;20416;-58
2023/09/04 05:01:24;;;;;;;1.05;0.70;;;17.20;2.30;;;;;;5111231;28;20420;-58
2023/09/04 05:03:51;;;;;;;1.50;0.80;;;17.20;1.00;;;;;;5111526;28;20438;-58
2023/09/04 05:06:18;;;;;;;1.00;0.70;;;17.20;1.00;;;;;;5113192;28;20424;-58
2023/09/04 05:08:45;;;;;;;1.50;0.70;;;17.20;1.00;;;;;;5112964;28;20839;-58
2023/09/04 05:11:12;;;;;;;1.00;0.70;;;17.30;1.00;;;;;;5112905;28;20685;-59
2023/09/04 05:13:39;;;;;;;1.10;0.70;;;17.30;1.00;;;;;;5104380;28;20839;-59
2023/09/04 05:16:07;;;;;;;1.30;0.80;;;17.30;1.00;;;;;;5130143;27;20407;-58
2023/09/04 05:18:37;;;;;;;0.90;0.70;;;17.30;1.00;;;;;;5134692;27;20425;-59
2023/09/04 05:21:06;;;;;;;1.10;0.70;;;17.40;1.00;;;;;;5134723;27;20837;-59
2023/09/04 05:23:33;;;;;;;1.30;0.70;;;17.50;1.00;;;;;;5133816;27;20422;-59
2023/09/04 05:26:00;;;;;;;1.40;0.80;;;17.50;1.00;;;;;;5133763;27;20845;-59
2023/09/04 05:28:27;;;;;;;1.08;0.70;;;17.60;1.00;;;;;;5115825;27;20430;-59
2023/09/04 05:30:54;;;;;;;1.20;0.80;;;17.50;1.00;;;;;;5125815;27;20410;-59
2023/09/04 05:33:23;;;;;;;1.30;0.70;;;17.50;1.00;;;;;;5134837;27;20422;-59
2023/09/04 05:35:56;;;;;;;1.30;0.80;;;17.50;1.00;;;;;;5134540;27;20852;-59
2023/09/04 05:38:23;;;;;;;1.47;0.70;;;17.50;1.00;;;;;;5113464;28;20424;-59
2023/09/04 05:40:50;;;;;;;1.10;0.70;;;17.70;1.00;;;;;;5116045;28;20473;-59
2023/09/04 05:43:17;;;;;;;1.17;0.70;;;17.80;1.00;;;;;;5129844;27;20414;-59
2023/09/04 05:45:44;;;;;;;1.13;0.70;;;17.90;1.00;;;;;;5126569;27;20521;-59
2023/09/04 05:48:11;;;;;;;1.05;0.60;;;17.90;1.00;;;;;;5133239;28;20846;-59
2023/09/04 05:50:40;;;;;;;1.60;0.70;;;17.90;1.00;;;;;;5134555;28;20422;-59
2023/09/04 05:53:07;;;;;;;1.50;0.70;;;18.00;1.00;;;;;;5136433;27;20716;-59
2023/09/04 05:55:37;;;;;;;1.10;0.70;;;18.10;1.00;;;;;;5154970;27;20420;-61
2023/09/04 05:58:04;;;;;;;1.20;0.70;;;18.20;1.00;;;;;;5152964;27;20413;-60
2023/09/04 06:00:31;;;;;;;1.60;0.70;;;18.20;1.00;;;;;;5153460;27;20696;-59
2023/09/04 06:02:59;;;;;;;1.20;1.00;;;17.90;1.00;;;;;;5149900;27;20425;-59
2023/09/04 06:05:26;;;;;;;1.20;0.80;;;17.90;1.00;;;;;;5135510;27;20463;-58
2023/09/04 06:07:56;;;;;;;1.20;0.80;;;17.70;1.00;;;;;;5133285;28;20479;-58
2023/09/04 06:10:23;;;;;;;1.30;0.80;;;17.60;1.00;;;;;;5131430;27;20423;-59
2023/09/04 06:12:52;;;;;;;1.30;0.80;;;17.50;1.00;;;;;;5131346;27;20407;-59
2023/09/04 06:15:19;;;;;;;1.33;0.90;;;17.50;1.00;;;;;;5140407;27;20717;-58
2023/09/04 06:17:47;;;;;;;1.25;0.70;;;17.40;1.00;;;;;;5147758;27;20424;-58
2023/09/04 06:20:14;;;;;;;1.20;0.80;;;17.40;1.00;;;;;;5124193;27;20716;-59
2023/09/04 06:22:41;;;;;;;1.38;0.82;;;17.50;1.00;;;;;;5129787;27;20424;-58
2023/09/04 06:25:10;;;;;;;1.50;0.83;;;17.50;1.00;;;;;;5130584;27;20471;-59
2023/09/04 06:27:37;;;;;;;1.40;1.00;;;17.50;4.40;;;;;;5122523;28;20422;-58
2023/09/04 06:30:05;;;;;;;1.40;0.90;;;17.70;1.00;;;;;;5132268;27;20429;-59
2023/09/04 06:32:32;;;;;;;1.10;0.80;;;17.90;1.00;;;;;;5125080;27;20441;-60
2023/09/04 06:35:00;;;;;;;1.92;0.90;;;17.90;1.00;;;;;;5134365;27;20452;-58
2023/09/04 06:37:27;;;;;;;1.83;1.00;;;18.00;1.00;;;;;;5134871;27;20430;-59
2023/09/04 06:39:54;;;;;;;2.00;1.00;;;17.90;1.00;;;;;;5136080;27;20435;-60
2023/09/04 06:42:23;;;;;;;1.30;0.90;;;17.90;1.00;;;;;;5115397;28;20428;-60
2023/09/04 06:44:50;;;;;;;2.97;1.10;;;17.90;1.00;;;;;;5125303;27;20428;-58
2023/09/04 06:47:17;;;;;;;2.10;0.90;;;17.90;1.00;;;;;;5115662;28;20471;-60
2023/09/04 06:49:44;;;;;;;1.67;0.90;;;18.00;1.00;;;;;;5118030;27;20422;-60
2023/09/04 06:52:11;;;;;;;3.05;0.90;;;18.10;1.00;;;;;;5114948;27;20423;-60
2023/09/04 06:54:38;;;;;;;2.72;1.10;;;18.10;1.00;;;;;;5096457;28;20414;-59
2023/09/04 06:57:05;;;;;;;1.70;0.90;;;18.20;1.00;;;;;;5095514;28;20425;-59
2023/09/04 06:59:33;;;;;;;1.70;1.00;;;18.30;1.00;;;;;;5104614;28;20420;-59
2023/09/04 07:02:01;;;;;;;1.30;0.85;;;18.30;1.00;;;;;;5095006;28;20464;-60
2023/09/04 07:04:28;;;;;;;1.52;0.90;;;18.50;1.00;;;;;;5102120;27;20437;-59
2023/09/04 07:06:55;;;;;;;1.55;0.93;;;18.60;1.00;;;;;;5108169;27;20424;-59
2023/09/04 07:09:22;;;;;;;1.70;1.00;;;18.60;1.00;;;;;;5120610;27;20428;-59
2023/09/04 07:11:49;;;;;;;2.03;0.88;;;18.60;1.00;;;;;;5121965;27;20868;-59
2023/09/04 07:14:16;;;;;;;2.40;0.80;;;18.70;1.00;;;;;;5103530;27;20519;-59
2023/09/04 07:16:45;;;;;;;1.20;0.90;;;18.70;1.00;;;;;;5116609;28;20449;-59
2023/09/04 07:19:12;;;;;;;2.08;0.90;;;18.80;1.00;;;;;;5108768;28;20572;-59
2023/09/04 07:21:40;;;;;;;1.63;1.00;;;18.90;1.00;;;;;;5093901;28;20497;-59
2023/09/04 07:24:07;;;;;;;3.22;0.93;;;19.00;99.90;;;;;;5103983;28;20432;-59
2023/09/04 07:26:35;;;;;;;2.27;0.93;;;19.10;99.90;;;;;;5116880;27;20443;-59
2023/09/04 07:29:02;;;;;;;1.90;0.90;;;19.10;99.90;;;;;;5109219;27;20448;-59
2023/09/04 07:31:29;;;;;;;1.52;0.90;;;19.20;99.90;;;;;;5115082;28;20455;-60
2023/09/04 07:33:59;;;;;;;1.40;1.10;;;19.30;99.90;;;;;;5113013;27;20459;-59
2023/09/04 07:36:26;;;;;;;1.20;0.90;;;19.40;99.90;;;;;;5129500;27;20505;-59
2023/09/04 07:38:53;;;;;;;1.40;1.00;;;19.60;99.90;;;;;;5097320;27;20435;-59
2023/09/04 07:41:20;;;;;;;1.67;0.90;;;19.80;1.00;;;;;;5121876;27;20432;-59
2023/09/04 07:43:49;;;;;;;1.40;0.90;;;19.70;99.90;;;;;;5099314;28;20758;-59
2023/09/04 07:46:16;;;;;;;1.10;0.90;;;19.80;1.00;;;;;;5111433;27;20764;-58
2023/09/04 07:48:43;;;;;;;1.30;0.90;;;20.00;99.90;;;;;;5108149;27;20431;-58
2023/09/04 07:51:11;;;;;;;1.20;0.90;;;20.20;1.00;;;;;;5114340;28;20427;-58
2023/09/04 07:53:38;;;;;;;1.70;1.00;;;20.20;1.00;;;;;;5099828;27;20424;-58
2023/09/04 07:56:05;;;;;;;3.13;0.95;;;20.30;1.00;;;;;;5115896;27;20422;-58
2023/09/04 07:58:33;;;;;;;2.60;0.80;;;20.40;1.00;;;;;;5130274;27;20507;-59
2023/09/04 08:01:00;;;;;;;1.50;0.80;;;20.50;99.90;;;;;;5129734;27;21076;-59
2023/09/04 08:03:27;;;;;;;1.10;0.80;;;20.50;99.90;;;;;;5139261;27;20495;-59
2023/09/04 08:05:54;;;;;;;1.10;0.80;;;20.50;1.00;;;;;;5136532;27;20419;-61
2023/09/04 08:08:23;;;;;;;1.10;0.80;;;20.60;99.90;;;;;;5137678;27;20430;-58
2023/09/04 08:10:51;;;;;;;1.65;0.90;;;20.70;99.90;;;;;;5137700;27;20707;-59
2023/09/04 08:13:19;;;;;;;1.13;0.80;;;20.90;99.90;;;;;;5137131;27;20429;-59
2023/09/04 08:15:46;;;;;;;2.10;1.00;;;21.00;97.50;;;;;;5124558;27;20421;-59
2023/09/04 08:18:14;;;;;;;1.13;0.80;;;21.10;99.90;;;;;;5118592;27;20418;-59
2023/09/04 08:20:41;;;;;;;2.30;0.90;;;21.20;1.00;;;;;;5118204;27;20518;-59
2023/09/04 08:23:09;;;;;;;1.20;0.80;;;21.20;99.90;;;;;;5125446;27;20499;-59
2023/09/04 08:25:38;;;;;;;1.67;0.90;;;21.20;99.90;;;;;;5130647;27;20443;-60
2023/09/04 08:28:06;;;;;;;1.10;0.80;;;21.20;99.90;;;;;;5118723;27;20861;-59
2023/09/04 08:30:34;;;;;;;0.90;0.80;;;21.30;99.90;;;;;;5117449;27;20811;-59
2023/09/04 08:33:01;;;;;;;1.10;0.80;;;21.40;99.90;;;;;;5126130;27;20457;-59
2023/09/04 08:35:29;;;;;;;1.50;0.80;;;21.50;1.00;;;;;;5118913;27;20435;-59
2023/09/04 08:37:56;;;;;;;1.15;0.80;;;21.60;1.00;;;;;;5124901;27;20426;-60
2023/09/04 08:40:24;;;;;;;1.10;0.80;;;21.70;1.00;;;;;;5126240;27;20518;-59
2023/09/04 08:42:55;;;;;;;1.10;0.70;;;21.90;1.00;;;;;;5129471;27;20422;-59
2023/09/04 08:45:23;;;;;;;1.17;0.80;;;22.00;1.00;;;;;;5116558;27;20458;-60
2023/09/04 08:47:52;;;;;;;1.10;0.80;;;22.00;1.00;;;;;;5132046;27;20430;-59
2023/09/04 08:50:21;;;;;;;1.10;0.80;;;22.20;1.00;;;;;;5116480;27;20930;-59
2023/09/04 08:52:49;;;;;;;1.20;0.80;;;22.20;1.00;;;;;;5114655;27;20443;-59
2023/09/04 08:55:19;;;;;;;1.23;0.85;;;22.20;99.90;;;;;;5121264;27;20510;-60
2023/09/04 08:57:46;;;;;;;1.05;0.80;;;22.20;99.90;;;;;;5124629;27;20810;-59
2023/09/04 09:00:16;;;;;;;1.00;0.77;;;22.30;99.90;;;;;;5129832;27;20450;-59
2023/09/04 09:02:44;;;;;;;1.38;0.80;;;22.50;99.90;;;;;;5123333;27;20462;-59
2023/09/04 09:05:13;;;;;;;1.50;0.80;;;22.60;99.90;;;;;;5124016;27;20427;-59
2023/09/04 09:07:42;;;;;;;1.50;0.80;;;22.70;99.90;;;;;;5133491;27;20430;-59
2023/09/04 09:10:14;;;;;;;1.42;0.70;;;22.80;99.90;;;;;;5125178;27;20861;-59
2023/09/04 09:12:41;;;;;;;1.10;0.80;;;22.80;99.90;;;;;;5125850;27;20463;-59
2023/09/04 09:15:09;;;;;;;1.10;0.70;;;22.90;99.90;;;;;;5127447;27;20433;-60
2023/09/04 09:17:50;;;;;;;1.20;0.90;;;23.00;99.90;;;;;;5131112;27;20425;-59
2023/09/04 09:20:30;;;;;;;1.20;0.80;;;23.10;99.90;;;;;;5126730;27;20485;-60
2023/09/04 09:22:58;;;;;;;1.10;0.80;;;23.20;99.90;;;;;;5113480;27;20881;-59
2023/09/04 09:25:25;;;;;;;0.90;0.80;;;23.30;99.90;;;;;;5126807;27;20418;-60
2023/09/04 09:27:53;;;;;;;1.17;0.75;;;23.30;99.90;;;;;;5106802;27;20426;-59
2023/09/04 09:30:21;;;;;;;1.00;0.70;;;23.40;99.90;;;;;;5128052;27;21001;-59
2023/09/04 09:32:55;;;;;;;1.25;0.80;;;23.40;92.70;;;;;;5107028;27;20470;-59
2023/09/04 09:35:22;;;;;;;0.88;0.70;;;23.50;91.80;;;;;;5126687;27;20565;-58
2023/09/04 09:37:49;;;;;;;1.73;0.80;;;23.60;87.30;;;;;;5118240;27;20877;-58
2023/09/04 09:40:16;;;;;;;1.30;0.70;;;23.60;75.60;;;;;;5114191;27;20404;-58
2023/09/04 09:42:43;;;;;;;1.00;0.80;;;23.80;32.50;;;;;;5122544;27;20419;-60
2023/09/04 09:45:13;;;;;;;1.00;0.70;;;23.90;60.80;;;;;;5115991;27;20431;-60
2023/09/04 09:47:41;;;;;;;1.10;0.70;;;24.00;19.20;;;;;;5124971;27;20521;-60
2023/09/04 09:50:11;;;;;;;1.27;0.80;;;24.00;24.60;;;;;;5144650;27;20466;-60
2023/09/04 09:52:38;;;;;;;1.30;0.70;;;24.10;1.00;;;;;;5125793;28;20420;-59
2023/09/04 09:55:07;;;;;;;1.10;0.70;;;24.10;1.00;;;;;;5105552;28;20415;-58
2023/09/04 09:57:36;;;;;;;1.00;0.70;;;24.30;1.00;;;;;;5115396;28;20408;-59
2023/09/04 10:00:04;;;;;;;1.00;0.80;;;24.50;1.00;;;;;;5112816;28;20427;-60
2023/09/04 10:02:32;;;;;;;1.60;0.70;;;24.50;1.00;;;;;;5117646;28;20434;-60
2023/09/04 10:05:01;;;;;;;1.80;0.70;;;24.60;1.00;;;;;;5105391;27;20519;-59
2023/09/04 10:07:32;;;;;;;1.20;0.70;;;24.80;1.00;;;;;;5108924;28;20886;-59
2023/09/04 10:10:05;;;;;;;0.90;0.70;;;25.00;1.00;;;;;;5115542;28;20929;-59
2023/09/04 10:12:36;;;;;;;0.90;0.70;;;25.20;1.00;;;;;;5113075;27;20436;-60
2023/09/04 10:15:06;;;;;;;1.10;0.70;;;25.40;1.00;;;;;;5131227;27;20462;-57
2023/09/04 10:17:37;;;;;;;1.05;0.70;;;25.50;1.00;;;;;;5124895;27;20443;-61
2023/09/04 10:20:06;;;;;;;0.90;0.70;;;25.70;1.00;;;;;;5129691;27;20417;-62
2023/09/04 10:22:38;;;;;;;2.20;0.60;;;26.00;1.00;;;;;;5118501;27;20445;-61
2023/09/04 10:25:13;;;;;;;1.08;0.60;;;26.10;1.00;;;;;;5133666;27;20442;-62
2023/09/04 10:27:45;;;;;;;1.00;0.70;;;26.20;1.00;;;;;;5125893;27;20517;-64
2023/09/04 10:30:18;;;;;;;1.10;0.70;;;26.20;1.00;;;;;;5128547;27;20422;-62
2023/09/04 10:32:45;;;;;;;2.00;0.70;;;26.40;1.00;;;;;;5132329;27;20453;-61
2023/09/04 10:35:13;;;;;;;0.80;0.60;;;26.60;1.00;;;;;;5136159;27;20422;-62
2023/09/04 10:37:43;;;;;;;1.02;0.70;;;26.90;1.00;;;;;;5132750;27;20417;-61
2023/09/04 10:40:11;;;;;;;1.60;0.70;;;27.20;1.00;;;;;;5135545;27;20467;-62
2023/09/04 10:42:41;;;;;;;0.95;0.70;;;27.30;1.00;;;;;;5128635;27;20847;-65
2023/09/04 10:45:15;;;;;;;0.95;0.70;;;27.60;1.00;;;;;;5116146;28;20424;-62
2023/09/04 10:47:47;;;;;;;1.00;0.70;;;27.40;1.00;;;;;;5125040;27;20441;-62
2023/09/04 10:50:38;;;;;;;1.00;0.70;;;27.50;1.00;;;;;;5130460;27;20433;-61
2023/09/04 10:53:08;;;;;;;0.90;0.60;;;27.70;1.00;;;;;;5098422;27;20441;-62
2023/09/04 10:55:37;;;;;;;0.80;0.70;;;27.90;1.00;;;;;;5092382;28;20418;-63
2023/09/04 10:58:05;;;;;;;0.95;0.70;;;27.80;1.00;;;;;;5091836;28;20402;-62
2023/09/04 11:00:34;;;;;;;0.90;0.60;;;27.70;1.00;;;;;;5112206;28;20500;-63
2023/09/04 11:03:16;;;;;;;0.90;0.70;;;27.70;1.00;;;;;;5115900;28;20428;-62
2023/09/04 11:06:12;;;;;;;1.15;0.60;;;27.70;1.00;;;;;;5095278;28;20426;-62
2023/09/04 11:08:51;;;;;;;0.90;0.70;;;27.60;1.00;;;;;;5051922;28;20435;-62
2023/09/04 11:11:24;;;;;;;0.90;0.60;;;27.30;1.00;;;;;;5107793;28;20428;-63
2023/09/04 11:13:58;;;;;;;0.90;0.70;;;27.40;1.00;;;;;;5109503;27;20447;-67
2023/09/04 11:16:26;;;;;;;0.90;0.60;;;27.70;1.00;;;;;;5092784;27;20489;-68
2023/09/04 11:19:11;;;;;;;0.90;0.60;;;28.00;1.00;;;;;;5116880;27;20779;-67
2023/09/04 11:21:39;;;;;;;0.80;0.60;;;28.30;1.00;;;;;;5116364;27;20534;-68
2023/09/04 11:24:08;;;;;;;1.00;0.60;;;28.20;1.00;;;;;;5116360;28;20427;-68
2023/09/04 11:26:36;;;;;;;1.20;0.60;;;28.40;1.00;;;;;;5107144;27;20424;-68
2023/09/04 11:29:05;;;;;;;0.80;0.60;;;28.50;1.00;;;;;;5114107;27;20427;-68
2023/09/04 11:31:34;;;;;;;1.00;0.60;;;28.60;1.00;;;;;;5097663;27;20429;-68
2023/09/04 11:34:02;;;;;;;1.60;0.70;;;28.60;1.00;;;;;;5134486;27;20472;-68
2023/09/04 11:36:29;;;;;;;2.00;0.70;;;28.60;1.00;;;;;;5134175;27;20431;-69
2023/09/04 11:39:09;;;;;;;1.20;0.70;;;28.90;1.00;;;;;;5128867;27;20424;-67
2023/09/04 11:41:36;;;;;;;0.77;0.60;;;29.20;1.00;;;;;;5113928;27;20479;-68
2023/09/04 11:44:06;;;;;;;1.00;0.70;;;29.50;1.00;;;;;;5134999;27;20743;-67
2023/09/04 11:46:34;;;;;;;0.70;0.55;;;29.50;1.00;;;;;;5136186;27;20422;-68
2023/09/04 11:49:02;;;;;;;0.90;0.60;;;29.50;1.00;;;;;;5134388;27;20425;-67
2023/09/04 11:51:29;;;;;;;0.90;0.60;;;29.60;1.00;;;;;;5132271;27;20722;-68
2023/09/04 11:53:56;;;;;;;0.80;0.50;;;29.80;1.00;;;;;;5133105;27;20442;-68
2023/09/04 11:56:25;;;;;;;0.77;0.60;;;29.90;1.00;;;;;;5124952;27;20833;-68
2023/09/04 11:58:53;;;;;;;0.80;0.60;;;30.00;1.00;;;;;;5090043;28;20430;-68
2023/09/04 12:01:20;;;;;;;0.90;0.60;;;29.60;1.00;;;;;;5104345;27;20430;-68
2023/09/04 12:03:49;;;;;;;0.80;0.60;;;29.60;1.00;;;;;;5116712;27;20411;-67
2023/09/04 12:06:16;;;;;;;0.98;0.57;;;29.40;1.00;;;;;;5114000;27;20988;-67
2023/09/04 12:08:43;;;;;;;0.80;0.60;;;29.30;1.00;;;;;;5103129;28;20530;-69
2023/09/04 12:11:10;;;;;;;0.70;0.50;;;29.20;1.00;;;;;;5097157;28;20633;-67
2023/09/04 12:13:39;;;;;;;0.80;0.60;;;29.30;1.00;;;;;;5093789;28;20423;-66
2023/09/04 12:16:07;;;;;;;0.80;0.43;;;29.50;1.00;;;;;;5117193;27;20440;-63
2023/09/04 12:18:38;;;;;;;0.80;0.50;;;29.20;1.00;;;;;;5095698;28;20443;-63
2023/09/04 12:21:10;;;;;;;1.00;0.60;;;29.00;1.00;;;;;;5099030;28;20443;-64
2023/09/04 12:23:39;;;;;;;1.00;0.60;;;29.20;1.00;;;;;;5102782;28;20424;-62
2023/09/04 12:26:09;;;;;;;1.58;0.60;;;29.40;1.00;;;;;;5108457;28;20433;-63
2023/09/04 12:28:39;;;;;;;0.80;0.50;;;29.30;1.00;;;;;;5106349;28;20425;-63
2023/09/04 12:31:08;;;;;;;0.70;0.50;;;29.60;1.00;;;;;;5107066;28;20430;-62
2023/09/04 12:33:39;;;;;;;0.90;0.60;;;29.80;1.00;;;;;;5112154;28;20427;-63
2023/09/04 12:36:08;;;;;;;0.70;0.50;;;30.00;1.00;;;;;;5102750;28;20433;-63
2023/09/04 12:38:35;;;;;;;1.00;0.50;;;29.80;1.00;;;;;;5113718;27;20851;-63
2023/09/04 12:41:02;;;;;;;0.70;0.50;;;29.10;1.00;;;;;;5107831;28;20424;-63
2023/09/04 12:43:29;;;;;;;0.90;0.60;;;29.30;1.00;;;;;;5112946;28;20456;-63
2023/09/04 12:45:58;;;;;;;0.80;0.50;;;29.40;1.00;;;;;;5103329;28;20418;-64
2023/09/04 12:48:25;;;;;;;0.80;0.50;;;29.60;1.00;;;;;;5093816;28;20437;-63
2023/09/04 12:50:52;;;;;;;0.80;0.50;;;29.70;1.00;;;;;;5101191;28;20435;-64
2023/09/04 12:53:19;;;;;;;1.00;0.60;;;29.20;1.00;;;;;;5123024;27;20422;-64
2023/09/04 12:55:47;;;;;;;0.85;0.60;;;29.40;1.00;;;;;;5129090;27;20441;-64
2023/09/04 12:58:15;;;;;;;0.80;0.50;;;29.40;1.00;;;;;;5134205;27;20406;-63
2023/09/04 13:00:43;;;;;;;0.80;0.60;;;29.70;1.00;;;;;;5116159;27;20423;-63
2023/09/04 13:03:12;;;;;;;0.80;0.50;;;29.80;1.00;;;;;;5114201;28;20519;-64